createdAt,value
2022-10-20T00:01:27.230Z,4.63
2022-10-20T00:03:55.280Z,5.07
2022-10-20T00:06:25.914Z,5.00
2022-10-20T00:08:53.675Z,6.75
2022-10-20T00:11:21.748Z,3.17
2022-10-20T00:13:50.617Z,3.63
2022-10-20T00:16:18.226Z,3.08
2022-10-20T00:18:45.035Z,5.57
2022-10-20T00:21:17.929Z,3.35
2022-10-20T00:23:44.985Z,5.43
2022-10-20T00:26:18.668Z,5.00
2022-10-20T00:28:46.102Z,5.07
2022-10-20T00:31:13.234Z,6.60
2022-10-20T00:33:40.279Z,3.92
2022-10-20T00:36:09.010Z,3.50
2022-10-20T00:38:36.133Z,5.50
2022-10-20T00:41:03.524Z,4.45
2022-10-20T00:43:44.860Z,4.13
2022-10-20T00:46:13.743Z,3.45
2022-10-20T00:48:42.730Z,6.55
2022-10-20T00:51:11.531Z,4.03
2022-10-20T00:53:38.202Z,7.40
2022-10-20T00:56:05.047Z,4.22
2022-10-20T00:58:31.709Z,4.68
2022-10-20T01:00:59.439Z,3.53
2022-10-20T01:03:34.633Z,4.75
2022-10-20T01:06:01.281Z,8.75
2022-10-20T01:08:27.960Z,3.65
2022-10-20T01:11:36.505Z,6.50
2022-10-20T01:14:31.133Z,3.97
2022-10-20T01:17:28.450Z,4.95
2022-10-20T01:20:01.006Z,7.40
2022-10-20T01:22:42.557Z,5.22
2022-10-20T01:25:45.098Z,3.35
2022-10-20T01:28:40.719Z,5.28
2022-10-20T01:31:26.940Z,6.50
2022-10-20T01:34:02.328Z,4.35
2022-10-20T01:36:56.702Z,9.23
2022-10-20T01:39:36.114Z,7.30
2022-10-20T01:42:11.305Z,3.55
2022-10-20T01:44:40.595Z,3.72
2022-10-20T01:47:10.008Z,8.38
2022-10-20T01:49:37.057Z,6.07
2022-10-20T01:52:03.845Z,6.13
2022-10-20T01:54:30.761Z,7.35
2022-10-20T01:57:17.710Z,6.68
2022-10-20T02:00:00.955Z,4.00
2022-10-20T02:02:46.422Z,4.95
2022-10-20T02:05:26.528Z,6.30
2022-10-20T02:08:00.126Z,5.63
2022-10-20T02:10:36.805Z,4.40
2022-10-20T02:13:07.064Z,6.68
2022-10-20T02:15:38.985Z,5.88
2022-10-20T02:18:08.478Z,6.90
2022-10-20T02:20:35.480Z,6.90
2022-10-20T02:23:04.772Z,4.72
2022-10-20T02:25:32.982Z,5.68
2022-10-20T02:30:32.767Z,5.30
2022-10-20T02:32:59.362Z,7.82
2022-10-20T02:35:33.399Z,4.93
2022-10-20T02:38:00.526Z,6.85
2022-10-20T02:40:27.445Z,5.05
2022-10-20T02:42:54.192Z,5.22
2022-10-20T02:45:20.871Z,7.85
2022-10-20T02:47:47.543Z,8.75
2022-10-20T02:50:14.206Z,6.90
2022-10-20T02:52:41.227Z,7.28
2022-10-20T02:55:08.238Z,8.68
2022-10-20T02:57:35.381Z,8.90
2022-10-20T03:00:02.259Z,8.55
2022-10-20T03:02:28.917Z,8.55
2022-10-20T03:04:55.575Z,9.45
2022-10-20T03:07:22.186Z,6.00
2022-10-20T03:09:48.989Z,12.40
2022-10-20T03:12:15.775Z,6.68
2022-10-20T03:14:42.702Z,8.60
2022-10-20T03:17:09.971Z,11.27
2022-10-20T03:19:36.663Z,6.88
2022-10-20T03:22:03.407Z,8.02
2022-10-20T03:24:29.992Z,9.68
2022-10-20T03:26:56.627Z,6.85
2022-10-20T03:29:23.227Z,7.88
2022-10-20T03:34:21.790Z,7.28
2022-10-20T03:36:48.389Z,6.30
2022-10-20T03:39:15.065Z,8.68
2022-10-20T03:41:41.755Z,7.68
2022-10-20T03:44:10.194Z,9.52
2022-10-20T03:46:36.880Z,10.18
2022-10-20T03:49:03.828Z,9.30
2022-10-20T03:51:30.483Z,11.85
2022-10-20T03:53:57.042Z,10.32
2022-10-20T03:56:23.641Z,11.02
2022-10-20T03:58:50.377Z,9.65
2022-10-20T04:01:19.992Z,7.25
2022-10-20T04:03:46.950Z,9.07
2022-10-20T04:06:14.927Z,11.45
2022-10-20T04:08:41.808Z,9.15
2022-10-20T04:11:08.695Z,8.75
2022-10-20T04:13:35.383Z,12.60
2022-10-20T04:16:02.030Z,12.25
2022-10-20T04:18:28.687Z,10.48
2022-10-20T04:20:55.572Z,9.93
2022-10-20T04:23:22.334Z,9.68
2022-10-20T04:25:49.074Z,10.15
2022-10-20T04:28:18.517Z,7.78
2022-10-20T04:30:46.384Z,9.18
2022-10-20T04:33:13.557Z,11.52
2022-10-20T04:35:40.698Z,10.70
2022-10-20T04:38:07.887Z,9.38
2022-10-20T04:40:34.536Z,9.40
2022-10-20T04:43:01.355Z,8.15
2022-10-20T04:45:28.336Z,8.88
2022-10-20T04:47:54.971Z,11.65
2022-10-20T04:50:21.735Z,10.23
2022-10-20T04:52:59.390Z,7.53
2022-10-20T04:55:26.033Z,7.95
2022-10-20T04:57:52.721Z,8.65
2022-10-20T05:00:19.361Z,7.38
2022-10-20T05:02:45.970Z,9.40
2022-10-20T05:05:12.775Z,11.60
2022-10-20T05:07:39.705Z,8.15
2022-10-20T05:10:07.008Z,14.95
2022-10-20T05:12:33.973Z,10.23
2022-10-20T05:15:00.815Z,7.20
2022-10-20T05:17:30.005Z,10.20
2022-10-20T05:19:56.912Z,11.35
2022-10-20T05:22:23.528Z,9.07
2022-10-20T05:24:50.127Z,16.10
2022-10-20T05:27:16.802Z,9.35
2022-10-20T05:29:43.418Z,7.82
2022-10-20T05:32:11.218Z,11.75
2022-10-20T05:34:38.922Z,12.82
2022-10-20T05:37:05.542Z,8.82
2022-10-20T05:39:32.200Z,12.68
2022-10-20T05:41:58.834Z,8.90
2022-10-20T05:44:25.423Z,16.35
2022-10-20T05:46:52.078Z,9.63
2022-10-20T05:49:18.808Z,13.88
2022-10-20T05:51:46.707Z,7.82
2022-10-20T05:54:14.027Z,11.00
2022-10-20T05:56:41.378Z,14.85
2022-10-20T05:59:08.781Z,11.88
2022-10-20T06:01:48.077Z,9.18
2022-10-20T06:04:17.532Z,9.32
2022-10-20T06:06:44.356Z,11.23
2022-10-20T06:09:11.744Z,11.45
2022-10-20T06:11:39.680Z,11.05
2022-10-20T06:14:07.598Z,8.95
2022-10-20T06:16:34.450Z,9.20
2022-10-20T06:19:01.427Z,11.68
2022-10-20T06:21:30.480Z,12.95
2022-10-20T06:24:01.650Z,9.80
2022-10-20T06:26:29.864Z,11.10
2022-10-20T06:29:03.545Z,9.57
2022-10-20T06:31:43.365Z,11.85
2022-10-20T06:34:24.328Z,7.43
2022-10-20T06:36:51.530Z,7.00
2022-10-20T06:39:21.663Z,9.80
2022-10-20T06:41:53.721Z,8.82
2022-10-20T06:44:22.565Z,10.88
2022-10-20T06:46:52.202Z,11.23
2022-10-20T06:49:19.386Z,10.65
2022-10-20T06:51:46.107Z,9.35
2022-10-20T06:54:12.992Z,10.88
2022-10-20T06:56:40.202Z,7.65
2022-10-20T06:59:07.280Z,10.88
2022-10-20T07:01:36.324Z,9.02
2022-10-20T07:04:10.226Z,8.35
2022-10-20T07:06:39.834Z,8.52
2022-10-20T07:09:11.350Z,7.35
2022-10-20T07:11:38.409Z,9.80
2022-10-20T07:14:05.242Z,8.88
2022-10-20T07:16:34.458Z,13.75
2022-10-20T07:19:02.452Z,13.68
2022-10-20T07:21:34.442Z,11.52
2022-10-20T07:24:04.955Z,7.35
2022-10-20T07:26:34.503Z,9.73
2022-10-20T07:29:02.789Z,10.30
2022-10-20T07:31:38.413Z,8.32
2022-10-20T07:34:23.385Z,12.27
2022-10-20T07:36:52.119Z,11.27
2022-10-20T07:39:18.722Z,10.13
2022-10-20T07:41:47.570Z,9.55
2022-10-20T07:44:14.358Z,8.88
2022-10-20T07:46:41.037Z,16.48
2022-10-20T07:51:54.481Z,7.30
2022-10-20T07:54:21.094Z,12.15
2022-10-20T07:56:47.759Z,8.68
2022-10-20T07:59:14.718Z,7.25
2022-10-20T08:01:41.997Z,11.70
2022-10-20T08:04:08.754Z,10.57
2022-10-20T08:06:35.433Z,7.10
2022-10-20T08:09:02.331Z,7.30
2022-10-20T08:11:29.182Z,9.48
2022-10-20T08:13:55.864Z,10.13
2022-10-20T08:21:49.140Z,7.90
2022-10-20T08:24:15.769Z,12.63
2022-10-20T08:26:42.405Z,9.40
2022-10-20T08:29:09.639Z,10.85
2022-10-20T08:31:36.316Z,13.43
2022-10-20T08:34:03.013Z,6.47
2022-10-20T08:36:29.926Z,9.98
2022-10-20T08:39:03.387Z,7.88
2022-10-20T08:41:55.408Z,8.57
2022-10-20T08:44:30.553Z,9.23
2022-10-20T08:46:59.535Z,8.80
2022-10-20T08:49:30.451Z,6.15
2022-10-20T08:51:58.676Z,8.50
2022-10-20T08:54:25.522Z,7.47
2022-10-20T08:56:52.701Z,7.68
2022-10-20T08:59:29.663Z,6.20
2022-10-20T09:01:57.765Z,6.05
2022-10-20T09:04:37.630Z,7.20
2022-10-20T09:07:10.755Z,6.90
2022-10-20T09:09:37.581Z,13.73
2022-10-20T09:12:06.983Z,7.10
2022-10-20T09:14:36.937Z,9.90
2022-10-20T09:17:06.929Z,4.95
2022-10-20T09:19:36.165Z,10.00
2022-10-20T09:22:07.203Z,6.80
2022-10-20T09:24:35.793Z,7.45
2022-10-20T09:27:21.712Z,6.03
2022-10-20T09:29:48.445Z,5.90
2022-10-20T09:32:46.516Z,7.53
2022-10-20T09:35:29.806Z,6.72
2022-10-20T09:38:16.423Z,6.10
2022-10-20T09:40:46.403Z,8.02
2022-10-20T09:43:18.193Z,8.48
2022-10-20T09:45:53.541Z,7.97
2022-10-20T09:48:31.447Z,8.90
2022-10-20T09:50:59.144Z,4.70
2022-10-20T09:53:34.815Z,7.30
2022-10-20T09:56:01.909Z,12.00
2022-10-20T09:58:33.867Z,7.53
2022-10-20T10:01:11.678Z,5.53
2022-10-20T10:03:45.452Z,4.93
2022-10-20T10:06:39.084Z,5.93
2022-10-20T10:09:36.393Z,4.82
2022-10-20T10:12:23.914Z,7.97
2022-10-20T10:14:56.705Z,8.23
2022-10-20T10:17:34.109Z,6.78
2022-10-20T10:20:25.645Z,5.30
2022-10-20T10:22:52.825Z,5.50
2022-10-20T10:25:25.917Z,6.35
2022-10-20T10:28:06.888Z,7.30
2022-10-20T10:30:36.188Z,10.02
2022-10-20T10:33:28.086Z,9.77
2022-10-20T10:35:55.179Z,9.07
2022-10-20T10:38:22.052Z,8.45
2022-10-20T10:40:54.382Z,6.38
2022-10-20T10:43:48.594Z,6.15
2022-10-20T10:46:24.146Z,6.82
2022-10-20T10:49:09.503Z,5.93
2022-10-20T10:51:53.665Z,8.70
2022-10-20T10:54:45.109Z,6.15
2022-10-20T10:57:30.082Z,6.30
2022-10-20T11:00:00.350Z,4.88
2022-10-20T11:03:12.231Z,11.68
2022-10-20T11:05:58.044Z,7.22
2022-10-20T11:08:33.441Z,8.70
2022-10-20T11:11:10.366Z,6.50
2022-10-20T11:13:51.080Z,6.93
2022-10-20T11:16:44.026Z,4.57
2022-10-20T11:19:20.707Z,9.18
2022-10-20T11:22:05.003Z,4.95
2022-10-20T11:25:12.973Z,5.13
2022-10-20T11:27:40.023Z,6.60
2022-10-20T11:30:20.810Z,6.75
2022-10-20T11:33:05.677Z,6.75
2022-10-20T11:35:40.012Z,7.53
2022-10-20T11:38:37.554Z,4.63
2022-10-20T11:41:16.348Z,9.95
2022-10-20T11:44:01.229Z,5.57
2022-10-20T11:46:45.482Z,10.85
2022-10-20T11:49:12.419Z,5.05
2022-10-20T11:52:04.290Z,8.20
2022-10-20T11:54:58.968Z,13.82
2022-10-20T11:58:01.133Z,7.18
2022-10-20T12:00:44.734Z,7.88
2022-10-20T12:03:30.033Z,6.18
2022-10-20T12:06:11.856Z,14.10
2022-10-20T12:09:07.276Z,6.30
2022-10-20T12:11:56.505Z,10.00
2022-10-20T12:14:37.448Z,8.25
2022-10-20T12:17:27.539Z,7.35
2022-10-20T12:20:20.015Z,8.73
2022-10-20T12:22:52.913Z,6.82
2022-10-20T12:25:25.078Z,9.02
2022-10-20T12:28:19.507Z,8.25
2022-10-20T12:31:04.896Z,7.40
2022-10-20T12:33:49.853Z,10.27
2022-10-20T12:36:19.253Z,8.00
2022-10-20T12:38:52.294Z,6.00
2022-10-20T12:41:26.715Z,9.23
2022-10-20T12:43:58.332Z,7.68
2022-10-20T12:46:31.386Z,9.32
2022-10-20T12:49:07.991Z,7.80
2022-10-20T12:51:53.447Z,6.82
2022-10-20T12:54:26.409Z,6.85
2022-10-20T12:56:58.337Z,5.90
2022-10-20T12:59:30.530Z,6.15
2022-10-20T13:02:09.278Z,10.38
2022-10-20T13:04:57.836Z,7.75
2022-10-20T13:07:46.276Z,7.78
2022-10-20T13:10:29.005Z,9.18
2022-10-20T13:13:01.657Z,6.90
2022-10-20T13:15:43.255Z,9.63
2022-10-20T13:18:12.967Z,7.88
2022-10-20T13:20:49.408Z,10.65
2022-10-20T13:23:19.145Z,12.65
2022-10-20T13:25:53.068Z,8.73
2022-10-20T13:28:26.799Z,9.63
2022-10-20T13:30:56.116Z,7.65
2022-10-20T13:33:38.816Z,12.93
2022-10-20T13:36:40.848Z,7.60
2022-10-20T13:39:22.627Z,6.32
2022-10-20T13:41:57.775Z,9.05
2022-10-20T13:44:32.739Z,6.65
2022-10-20T13:47:39.261Z,11.93
2022-10-20T13:50:14.719Z,10.18
2022-10-20T13:52:44.775Z,7.00
2022-10-20T13:55:24.561Z,10.13
2022-10-20T13:57:57.317Z,6.93
2022-10-20T14:00:27.991Z,8.88
2022-10-20T14:03:03.689Z,11.55
2022-10-20T14:05:37.152Z,8.50
2022-10-20T14:08:09.343Z,8.98
2022-10-20T14:10:57.827Z,10.52
2022-10-20T14:13:31.983Z,6.47
2022-10-20T14:16:00.069Z,12.18
2022-10-20T14:18:39.468Z,9.25
2022-10-20T14:24:01.164Z,9.52
2022-10-20T14:26:29.196Z,7.18
2022-10-20T14:28:56.107Z,9.73
2022-10-20T14:31:24.273Z,15.68
2022-10-20T14:33:52.264Z,12.68
2022-10-20T14:39:00.869Z,8.35
2022-10-20T14:41:29.203Z,11.02
2022-10-20T14:44:05.130Z,10.48
2022-10-20T14:46:41.181Z,8.43
2022-10-20T14:49:16.007Z,10.23
2022-10-20T14:51:54.939Z,14.30
2022-10-20T14:54:22.513Z,11.82
2022-10-20T14:56:55.189Z,11.23
2022-10-20T14:59:28.184Z,10.18
2022-10-20T15:02:16.895Z,9.15
2022-10-20T15:04:45.030Z,13.50
2022-10-20T15:07:17.600Z,11.55
2022-10-20T15:09:50.309Z,11.77
2022-10-20T15:12:33.011Z,11.35
2022-10-20T15:15:11.135Z,10.23
2022-10-20T15:17:39.491Z,11.52
2022-10-20T15:20:32.319Z,9.27
2022-10-20T15:23:00.436Z,11.40
2022-10-20T15:25:29.511Z,10.75
2022-10-20T15:27:57.211Z,15.90
2022-10-20T15:30:25.611Z,12.13
2022-10-20T15:32:53.805Z,15.60
2022-10-20T15:35:23.647Z,16.73
2022-10-20T15:37:52.472Z,14.38
2022-10-20T15:40:21.107Z,15.20
2022-10-20T15:42:48.722Z,12.25
2022-10-20T15:45:22.156Z,13.23
2022-10-20T15:47:49.139Z,12.85
2022-10-20T15:50:20.586Z,12.00
2022-10-20T15:52:49.585Z,11.82
2022-10-20T15:55:22.327Z,13.80
2022-10-20T15:57:50.806Z,11.02
2022-10-20T16:00:18.547Z,13.38
2022-10-20T16:02:45.450Z,13.27
2022-10-20T16:05:12.165Z,7.55
2022-10-20T16:07:39.115Z,12.93
2022-10-20T16:10:07.256Z,11.68
2022-10-20T16:12:34.327Z,10.82
2022-10-20T16:15:01.774Z,10.00
2022-10-20T16:17:28.436Z,12.10
2022-10-20T16:19:55.156Z,11.85
2022-10-20T16:22:22.052Z,11.50
2022-10-20T16:24:48.705Z,16.90
2022-10-20T16:27:15.829Z,14.80
2022-10-20T16:29:45.096Z,13.32
2022-10-20T16:32:14.228Z,13.57
2022-10-20T16:34:40.843Z,9.93
2022-10-20T16:37:07.544Z,10.82
2022-10-20T16:39:34.125Z,10.57
2022-10-20T16:42:00.817Z,9.98
2022-10-20T16:44:27.497Z,9.65
2022-10-20T16:46:54.154Z,10.55
2022-10-20T16:49:20.733Z,14.35
2022-10-20T16:51:47.322Z,15.27
2022-10-20T16:54:14.049Z,13.45
2022-10-20T16:56:40.653Z,12.48
2022-10-20T16:59:07.503Z,10.65
2022-10-20T17:01:34.222Z,11.00
2022-10-20T17:04:00.872Z,11.05
2022-10-20T17:06:27.543Z,12.55
2022-10-20T17:08:54.706Z,12.43
2022-10-20T17:11:23.869Z,11.45
2022-10-20T17:13:51.193Z,12.75
2022-10-20T17:16:24.831Z,10.77
2022-10-20T17:18:55.111Z,11.32
2022-10-20T17:21:21.906Z,11.07
2022-10-20T17:23:48.777Z,10.95
2022-10-20T17:26:18.891Z,9.95
2022-10-20T17:28:46.669Z,14.15
2022-10-20T17:33:43.328Z,11.15
2022-10-20T17:36:11.639Z,11.43
2022-10-20T17:38:38.898Z,14.05
2022-10-20T17:41:10.641Z,14.15
2022-10-20T17:43:37.342Z,11.73
2022-10-20T17:46:06.774Z,14.77
2022-10-20T17:48:34.909Z,12.20
2022-10-20T17:51:05.833Z,9.77
2022-10-20T17:53:34.086Z,14.75
2022-10-20T17:56:06.029Z,19.92
2022-10-20T17:58:36.103Z,14.88
2022-10-20T18:01:13.959Z,15.35
2022-10-20T18:03:41.606Z,20.98
2022-10-20T18:06:10.735Z,11.40
2022-10-20T18:08:37.562Z,17.10
2022-10-20T18:11:09.134Z,13.80
2022-10-20T18:13:36.191Z,13.35
2022-10-20T18:16:11.879Z,11.63
2022-10-20T18:18:39.176Z,12.60
2022-10-20T18:21:11.343Z,13.55
2022-10-20T18:23:38.310Z,16.02
2022-10-20T18:26:11.416Z,15.30
2022-10-20T18:28:44.422Z,13.18
2022-10-20T18:31:19.603Z,11.52
2022-10-20T18:33:46.959Z,13.95
2022-10-20T18:36:15.156Z,17.45
2022-10-20T18:38:43.758Z,10.65
2022-10-20T18:41:25.558Z,14.23
2022-10-20T18:43:57.762Z,13.50
2022-10-20T18:46:26.215Z,17.75
2022-10-20T18:48:53.113Z,12.60
2022-10-20T18:51:19.759Z,12.57
2022-10-20T18:53:47.011Z,14.95
2022-10-20T18:56:16.188Z,14.68
2022-10-20T18:58:47.655Z,16.02
2022-10-20T19:01:16.579Z,12.88
2022-10-20T19:03:48.545Z,14.98
2022-10-20T19:06:22.002Z,11.27
2022-10-20T19:08:53.996Z,15.32
2022-10-20T19:11:22.967Z,12.65
2022-10-20T19:13:49.748Z,15.30
2022-10-20T19:16:19.140Z,13.15
2022-10-20T19:18:48.336Z,12.90
2022-10-20T19:21:15.556Z,14.93
2022-10-20T19:23:45.072Z,13.82
2022-10-20T19:26:18.878Z,14.75
2022-10-20T19:28:58.768Z,14.27
2022-10-20T19:31:35.294Z,16.08
2022-10-20T19:34:07.336Z,13.88
2022-10-20T19:36:34.177Z,11.23
2022-10-20T19:39:01.565Z,14.63
2022-10-20T19:41:28.319Z,14.23
2022-10-20T19:43:54.926Z,13.48
2022-10-20T19:46:22.216Z,14.50
2022-10-20T19:48:49.760Z,11.35
2022-10-20T19:51:18.567Z,13.15
2022-10-20T19:53:45.831Z,14.90
2022-10-20T19:56:12.606Z,12.60
2022-10-20T19:58:42.716Z,12.50
2022-10-20T20:01:12.534Z,11.85
2022-10-20T20:03:39.230Z,13.25
2022-10-20T20:06:08.752Z,16.10
2022-10-20T20:08:36.532Z,11.80
2022-10-20T20:11:04.549Z,12.98
2022-10-20T20:13:32.541Z,15.23
2022-10-20T20:16:08.124Z,14.32
2022-10-20T20:18:35.592Z,15.38
2022-10-20T20:21:04.400Z,13.90
2022-10-20T20:23:41.333Z,13.85
2022-10-20T20:26:18.214Z,15.82
2022-10-20T20:28:44.853Z,16.30
2022-10-20T20:31:12.096Z,15.13
2022-10-20T20:33:38.945Z,11.98
2022-10-20T20:36:08.184Z,13.60
2022-10-20T20:38:37.073Z,15.48
2022-10-20T20:41:06.838Z,14.02
2022-10-20T20:43:35.108Z,14.77
2022-10-20T20:46:12.190Z,12.63
2022-10-20T20:48:38.865Z,14.55
2022-10-20T20:51:05.733Z,13.77
2022-10-20T20:56:08.210Z,13.50
2022-10-20T20:58:35.165Z,20.63
2022-10-20T21:01:02.713Z,16.52
2022-10-20T21:03:29.700Z,14.10
2022-10-20T21:05:56.360Z,16.52
2022-10-20T21:08:23.069Z,18.50
2022-10-20T21:10:49.682Z,18.90
2022-10-20T21:13:16.286Z,15.13
2022-10-20T21:15:42.902Z,21.83
2022-10-20T21:18:09.499Z,18.48
2022-10-20T21:20:36.179Z,19.05
2022-10-20T21:23:02.787Z,20.08
2022-10-20T21:25:29.381Z,16.63
2022-10-20T21:27:56.239Z,15.90
2022-10-20T21:30:24.195Z,21.45
2022-10-20T21:32:50.900Z,15.02
2022-10-20T21:35:17.462Z,15.43
2022-10-20T21:37:44.074Z,13.80
2022-10-20T21:40:11.086Z,19.17
2022-10-20T21:42:38.040Z,15.30
2022-10-20T21:45:05.208Z,14.80
2022-10-20T21:47:31.915Z,18.08
2022-10-20T21:49:58.496Z,15.23
2022-10-20T21:52:25.153Z,16.15
2022-10-20T21:54:51.757Z,17.80
2022-10-20T21:57:18.427Z,14.65
2022-10-20T21:59:50.289Z,16.70
2022-10-20T22:02:16.918Z,18.55
2022-10-20T22:04:43.506Z,18.42
2022-10-20T22:07:10.093Z,15.95
2022-10-20T22:09:36.696Z,13.35
2022-10-20T22:12:03.738Z,17.45
2022-10-20T22:14:30.576Z,17.10
2022-10-20T22:16:57.614Z,14.93
2022-10-20T22:19:24.997Z,15.77
2022-10-20T22:21:52.424Z,14.85
2022-10-20T22:24:20.028Z,16.55
2022-10-20T22:26:47.903Z,15.98
2022-10-20T22:29:14.715Z,13.95
2022-10-20T22:31:41.759Z,13.18
2022-10-20T22:34:08.980Z,13.05
2022-10-20T22:36:35.690Z,12.75
2022-10-20T22:39:02.899Z,14.70
2022-10-20T22:41:29.597Z,14.32
2022-10-20T22:43:57.491Z,15.35
2022-10-20T22:46:24.175Z,16.63
2022-10-20T22:48:50.866Z,12.73
2022-10-20T22:51:17.583Z,12.13
2022-10-20T22:53:44.219Z,12.73
2022-10-20T22:56:18.647Z,11.82
2022-10-20T22:58:45.514Z,15.95
2022-10-20T23:01:15.158Z,15.32
2022-10-20T23:03:42.275Z,16.98
2022-10-20T23:06:13.274Z,16.75
2022-10-20T23:08:45.828Z,14.05
2022-10-20T23:11:13.857Z,13.23
2022-10-20T23:13:40.758Z,15.77
2022-10-20T23:16:07.748Z,14.30
2022-10-20T23:18:34.480Z,11.95
2022-10-20T23:21:01.416Z,16.40
2022-10-20T23:23:28.253Z,12.25
2022-10-20T23:25:54.988Z,10.73
2022-10-20T23:28:21.677Z,12.45
2022-10-20T23:30:48.373Z,12.57
2022-10-20T23:33:15.297Z,11.88
2022-10-20T23:35:42.130Z,16.55
2022-10-20T23:38:09.727Z,19.13
2022-10-20T23:40:36.979Z,12.35
2022-10-20T23:43:03.895Z,11.98
2022-10-20T23:45:32.917Z,13.32
2022-10-20T23:48:02.164Z,12.50
2022-10-20T23:50:28.786Z,12.20
2022-10-20T23:52:55.449Z,16.13
2022-10-20T23:55:22.058Z,11.50
2022-10-20T23:57:50.547Z,12.80
